createdAt,value
2019-05-16T00:00:41.314Z,92.80
2019-05-16T00:03:30.111Z,92.80
2019-05-16T00:06:18.207Z,93.00
2019-05-16T00:09:08.022Z,93.10
2019-05-16T00:11:58.082Z,93.10
2019-05-16T00:14:48.825Z,93.20
2019-05-16T00:20:28.137Z,93.50
2019-05-16T00:26:02.950Z,94.00
2019-05-16T00:28:50.900Z,94.20
2019-05-16T00:34:27.999Z,94.40
2019-05-16T00:40:08.206Z,94.40
2019-05-16T00:42:58.635Z,94.50
2019-05-16T00:45:48.440Z,94.80
2019-05-16T00:48:38.170Z,94.70
2019-05-16T00:51:28.646Z,94.70
2019-05-16T00:54:18.600Z,94.70
2019-05-16T00:57:08.481Z,94.90
2019-05-16T01:05:38.762Z,94.70
2019-05-16T01:08:28.123Z,95.10
2019-05-16T01:16:52.230Z,95.00
2019-05-16T01:19:40.356Z,95.00
2019-05-16T01:22:29.084Z,95.10
2019-05-16T01:30:57.971Z,95.20
2019-05-16T01:39:25.248Z,95.70
2019-05-16T01:45:01.296Z,95.40
2019-05-16T01:50:38.860Z,95.30
2019-05-16T01:53:27.940Z,95.10
2019-05-16T02:01:52.863Z,95.50
2019-05-16T02:07:28.680Z,95.90
2019-05-16T02:13:08.337Z,95.90
2019-05-16T02:19:03.232Z,96.00
2019-05-16T02:21:51.149Z,95.60
2019-05-16T02:24:39.032Z,95.90
2019-05-16T02:27:28.774Z,96.00
2019-05-16T02:30:21.323Z,96.00
2019-05-16T02:35:56.011Z,96.20
2019-05-16T02:47:10.782Z,96.40
2019-05-16T02:50:01.196Z,96.50
2019-05-16T02:58:30.749Z,96.40
2019-05-16T03:06:53.271Z,96.50
2019-05-16T03:18:11.726Z,96.70
2019-05-16T03:21:01.898Z,97.00
2019-05-16T03:23:50.835Z,97.00
2019-05-16T03:26:40.858Z,97.00
2019-05-16T03:35:14.448Z,97.40
2019-05-16T03:43:37.504Z,97.50
2019-05-16T03:46:25.761Z,97.50
2019-05-16T03:52:01.871Z,97.50
2019-05-16T03:57:41.609Z,97.50
2019-05-16T04:03:32.964Z,97.60
2019-05-16T04:06:22.143Z,97.50
2019-05-16T04:14:51.040Z,97.50
2019-05-16T04:17:41.194Z,97.50
2019-05-16T04:20:30.319Z,97.40
2019-05-16T04:28:54.615Z,97.40
2019-05-16T05:02:41.238Z,95.60
2019-05-16T05:05:27.785Z,95.10
2019-05-16T05:08:16.237Z,95.00
2019-05-16T05:28:00.568Z,92.20
2019-05-16T05:33:41.366Z,91.40
2019-05-16T05:44:51.508Z,90.70
2019-05-16T05:50:30.590Z,90.30
2019-05-16T06:18:34.119Z,85.70
2019-05-16T06:27:00.966Z,77.30
2019-05-16T06:41:02.875Z,72.20
2019-05-16T06:46:54.848Z,71.10
2019-05-16T06:49:30.374Z,66.20
2019-05-16T06:55:07.250Z,64.20
2019-05-16T06:57:57.287Z,63.80
2019-05-16T07:00:45.389Z,64.60
2019-05-16T07:03:33.909Z,65.70
2019-05-16T07:06:45.478Z,69.10
2019-05-16T07:09:11.962Z,72.10
2019-05-16T07:12:00.406Z,74.60
2019-05-16T07:17:39.813Z,77.70
2019-05-16T07:20:30.052Z,80.10
2019-05-16T07:23:17.888Z,81.10
2019-05-16T07:26:06.418Z,74.70
2019-05-16T07:28:54.236Z,66.40
2019-05-16T07:34:31.196Z,69.30
2019-05-16T07:37:20.303Z,70.80
2019-05-16T07:43:00.074Z,69.50
2019-05-16T07:45:50.903Z,69.50
2019-05-16T07:48:40.347Z,66.80
2019-05-16T07:51:27.882Z,69.00
2019-05-16T07:54:16.270Z,70.30
2019-05-16T07:57:16.066Z,70.70
2019-05-16T07:59:54.413Z,71.30
2019-05-16T08:02:42.480Z,71.10
2019-05-16T08:05:33.532Z,72.00
2019-05-16T08:08:24.299Z,74.80
2019-05-16T08:11:12.311Z,77.30
2019-05-16T08:14:01.085Z,78.10
2019-05-16T08:16:51.196Z,77.10
2019-05-16T08:19:39.935Z,78.20
2019-05-16T08:22:30.610Z,78.20
2019-05-16T08:25:20.363Z,78.70
2019-05-16T08:28:11.711Z,78.70
2019-05-16T08:31:00.939Z,78.90
2019-05-16T08:33:52.164Z,78.00
2019-05-16T08:36:40.866Z,76.80
2019-05-16T08:39:31.073Z,77.30
2019-05-16T08:42:20.791Z,77.80
2019-05-16T08:45:12.801Z,73.30
2019-05-16T08:48:00.243Z,71.30
2019-05-16T08:50:51.395Z,72.60
2019-05-16T08:59:13.942Z,64.80
2019-05-16T09:02:03.488Z,64.60
2019-05-16T09:07:41.672Z,64.20
2019-05-16T09:10:19.013Z,64.90
2019-05-16T09:13:20.606Z,68.10
2019-05-16T09:16:08.699Z,70.60
2019-05-16T09:18:57.721Z,67.70
2019-05-16T09:24:38.301Z,66.10
2019-05-16T09:27:27.447Z,66.60
2019-05-16T09:30:17.267Z,63.80
2019-05-16T09:33:07.065Z,60.70
2019-05-16T09:35:57.261Z,61.20
2019-05-16T09:38:48.477Z,60.80
2019-05-16T09:41:49.718Z,60.60
2019-05-16T09:44:27.365Z,62.80
2019-05-16T09:47:17.557Z,59.60
2019-05-16T09:50:07.243Z,58.90
2019-05-16T09:52:56.570Z,58.40
2019-05-16T09:55:46.997Z,58.40
2019-05-16T09:58:37.306Z,57.40
2019-05-16T10:04:17.274Z,57.10
2019-05-16T10:07:06.690Z,56.10
2019-05-16T10:09:57.058Z,55.70
2019-05-16T10:12:45.364Z,54.70
2019-05-16T10:18:22.133Z,57.60
2019-05-16T10:21:10.638Z,58.20
2019-05-16T10:23:58.453Z,56.90
2019-05-16T10:26:53.778Z,57.40
2019-05-16T10:29:39.148Z,57.20
2019-05-16T10:32:27.536Z,56.50
2019-05-16T10:38:03.801Z,56.80
2019-05-16T10:40:51.592Z,55.40
2019-05-16T10:43:40.085Z,56.80
2019-05-16T10:46:28.873Z,55.70
2019-05-16T10:49:25.717Z,57.00
2019-05-16T10:52:07.294Z,57.50
2019-05-16T10:55:01.456Z,57.00
2019-05-16T10:57:47.428Z,59.10
2019-05-16T11:01:04.958Z,59.60
2019-05-16T11:06:24.621Z,61.50
2019-05-16T11:09:02.498Z,61.20
2019-05-16T11:11:51.441Z,59.80
2019-05-16T11:14:40.084Z,59.70
2019-05-16T11:17:28.941Z,61.00
2019-05-16T11:20:20.478Z,59.40
2019-05-16T11:23:09.189Z,62.10
2019-05-16T11:25:58.403Z,63.10
2019-05-16T11:28:48.545Z,62.30
2019-05-16T11:31:37.315Z,62.90
2019-05-16T11:34:26.662Z,62.50
2019-05-16T11:37:17.541Z,61.40
2019-05-16T11:43:06.538Z,60.10
2019-05-16T11:45:43.868Z,60.70
2019-05-16T11:48:32.704Z,59.90
2019-05-16T11:51:20.741Z,59.80
2019-05-16T11:54:09.296Z,60.00
2019-05-16T11:57:00.869Z,61.00
2019-05-16T11:59:49.550Z,59.90
2019-05-16T12:02:42.249Z,61.80
2019-05-16T12:05:27.590Z,60.00
2019-05-16T12:08:17.394Z,60.80
2019-05-16T12:11:06.951Z,61.40
2019-05-16T12:16:47.023Z,61.30
2019-05-16T12:19:37.670Z,62.00
2019-05-16T12:22:26.687Z,61.80
2019-05-16T12:25:16.608Z,59.90
2019-05-16T12:28:04.461Z,59.80
2019-05-16T12:30:52.985Z,60.20
2019-05-16T12:33:40.896Z,58.90
2019-05-16T12:36:31.530Z,59.40
2019-05-16T12:39:20.796Z,59.40
2019-05-16T12:42:09.152Z,60.00
2019-05-16T12:44:57.324Z,60.20
2019-05-16T12:47:47.265Z,59.50
2019-05-16T12:50:38.924Z,59.30
2019-05-16T12:53:31.629Z,58.90
2019-05-16T12:56:17.543Z,59.60
2019-05-16T12:59:05.694Z,58.40
2019-05-16T13:01:59.000Z,57.40
2019-05-16T13:04:47.146Z,58.60
2019-05-16T13:07:37.533Z,58.40
2019-05-16T13:10:27.040Z,58.80
2019-05-16T13:13:17.585Z,58.10
2019-05-16T13:16:07.440Z,59.20
2019-05-16T13:18:56.727Z,59.40
2019-05-16T13:21:46.997Z,60.10
2019-05-16T13:27:23.474Z,60.10
2019-05-16T13:30:12.554Z,60.60
2019-05-16T13:33:00.534Z,61.20
2019-05-16T13:35:51.097Z,60.60
2019-05-16T13:38:39.737Z,59.60
2019-05-16T13:41:28.462Z,58.10
2019-05-16T13:44:22.648Z,57.30
2019-05-16T13:47:07.730Z,56.80
2019-05-16T13:49:56.498Z,54.80
2019-05-16T13:52:47.924Z,54.00
2019-05-16T13:55:34.749Z,54.60
2019-05-16T14:06:47.654Z,58.80
2019-05-16T14:12:26.863Z,58.20
2019-05-16T14:15:17.886Z,58.40
2019-05-16T14:18:07.399Z,57.70
2019-05-16T14:20:57.132Z,57.40
2019-05-16T14:23:52.848Z,57.90
2019-05-16T14:26:34.721Z,57.20
2019-05-16T14:29:22.865Z,56.80
2019-05-16T14:32:11.437Z,57.40
2019-05-16T14:34:59.269Z,57.70
2019-05-16T14:37:47.666Z,57.50
2019-05-16T14:40:37.383Z,57.40
2019-05-16T14:43:27.222Z,57.60
2019-05-16T14:46:18.273Z,60.80
2019-05-16T14:49:07.734Z,61.80
2019-05-16T14:51:57.859Z,62.20
2019-05-16T14:54:46.861Z,64.40
2019-05-16T14:57:36.808Z,65.30
2019-05-16T15:00:27.387Z,65.50
2019-05-16T15:03:14.573Z,66.60
2019-05-16T15:06:02.253Z,67.00
2019-05-16T15:08:50.778Z,68.10
2019-05-16T15:11:39.183Z,69.60
2019-05-16T15:14:28.178Z,69.30
2019-05-16T15:22:56.639Z,69.50
2019-05-16T15:25:43.527Z,70.40
2019-05-16T15:28:31.904Z,70.80
2019-05-16T15:31:20.458Z,71.30
2019-05-16T15:34:08.984Z,71.70
2019-05-16T15:37:00.080Z,71.60
2019-05-16T15:39:47.706Z,70.90
2019-05-16T15:42:37.349Z,71.50
2019-05-16T15:45:42.463Z,71.40
2019-05-16T15:48:24.577Z,71.80
2019-05-16T15:51:12.926Z,72.20
2019-05-16T15:54:01.841Z,72.80
2019-05-16T15:56:51.436Z,73.60
2019-05-16T15:59:39.606Z,74.10
2019-05-16T16:02:27.745Z,74.60
2019-05-16T16:05:17.590Z,75.70
2019-05-16T16:08:07.059Z,76.30
2019-05-16T16:10:55.986Z,76.10
2019-05-16T16:13:44.186Z,77.10
2019-05-16T16:16:32.047Z,77.20
2019-05-16T16:22:08.254Z,78.80
2019-05-16T16:24:57.496Z,79.30
2019-05-16T16:27:45.577Z,80.60
2019-05-16T16:30:33.566Z,80.70
2019-05-16T16:33:26.029Z,81.30
2019-05-16T16:36:12.433Z,81.80
2019-05-16T16:39:00.713Z,81.40
2019-05-16T16:41:49.218Z,80.10
2019-05-16T16:44:37.353Z,79.70
2019-05-16T16:47:26.943Z,80.40
2019-05-16T16:50:17.660Z,80.60
2019-05-16T16:53:07.118Z,80.60
2019-05-16T16:55:56.888Z,80.40
2019-05-16T17:01:34.326Z,80.60
2019-05-16T17:04:23.233Z,81.00
2019-05-16T17:07:12.029Z,81.40
2019-05-16T17:10:00.588Z,82.10
2019-05-16T17:12:48.916Z,82.40
2019-05-16T17:15:37.444Z,83.20
2019-05-16T17:26:54.653Z,84.20
2019-05-16T17:29:43.437Z,84.70
2019-05-16T17:32:31.601Z,85.70
2019-05-16T17:35:20.529Z,84.80
2019-05-16T17:38:09.237Z,85.60
2019-05-16T17:40:57.647Z,84.80
2019-05-16T17:43:46.939Z,85.50
2019-05-16T17:46:40.137Z,85.90
2019-05-16T17:49:26.677Z,85.70
2019-05-16T17:52:16.550Z,84.60
2019-05-16T17:55:07.269Z,84.80
2019-05-16T17:57:56.989Z,86.10
2019-05-16T18:06:22.797Z,84.80
2019-05-16T18:09:11.577Z,85.90
2019-05-16T18:12:00.291Z,85.90
2019-05-16T18:14:50.373Z,87.10
2019-05-16T18:17:38.045Z,87.00
2019-05-16T18:20:26.666Z,87.10
2019-05-16T18:23:16.498Z,86.80
2019-05-16T18:26:07.690Z,87.60
2019-05-16T18:28:55.213Z,87.90
2019-05-16T18:31:43.258Z,88.10
2019-05-16T18:37:18.503Z,88.60
2019-05-16T18:40:07.439Z,88.00
2019-05-16T18:42:57.071Z,87.80
2019-05-16T18:45:47.205Z,87.70
2019-05-16T18:48:36.614Z,88.10
2019-05-16T18:51:26.464Z,88.20
2019-05-16T18:57:07.000Z,89.30
2019-05-16T19:02:44.077Z,88.70
2019-05-16T19:05:32.236Z,88.60
2019-05-16T19:08:20.115Z,89.20
2019-05-16T19:11:09.325Z,89.30
2019-05-16T19:19:37.679Z,89.90
2019-05-16T19:25:15.376Z,90.20
2019-05-16T19:30:52.519Z,90.00
2019-05-16T19:33:40.753Z,90.00
2019-05-16T19:36:29.276Z,90.00
2019-05-16T19:39:17.080Z,90.00
2019-05-16T19:44:56.137Z,90.40
2019-05-16T19:58:57.096Z,91.10
2019-05-16T20:01:46.433Z,91.50
2019-05-16T20:07:26.261Z,91.60
2019-05-16T20:10:16.906Z,91.70
2019-05-16T20:13:04.533Z,91.80
2019-05-16T20:15:53.061Z,92.10
2019-05-16T20:21:28.977Z,92.40
2019-05-16T20:24:17.811Z,92.70
2019-05-16T20:29:59.247Z,92.80
2019-05-16T20:32:47.089Z,93.10
2019-05-16T20:35:37.304Z,93.50
2019-05-16T20:38:26.627Z,93.50
2019-05-16T20:41:16.893Z,93.60
2019-05-16T20:44:06.538Z,93.80
2019-05-16T20:49:44.528Z,94.10
2019-05-16T20:55:26.901Z,94.10
2019-05-16T20:58:16.394Z,94.10
2019-05-16T21:01:06.982Z,94.10
2019-05-16T21:06:57.174Z,93.60
2019-05-16T21:12:19.125Z,94.10
2019-05-16T21:15:07.974Z,94.30
2019-05-16T21:17:56.984Z,94.60
2019-05-16T21:20:46.972Z,94.70
2019-05-16T21:23:36.570Z,94.90
2019-05-16T21:26:26.292Z,94.90
2019-05-16T21:29:16.492Z,94.70
2019-05-16T21:32:04.138Z,94.50
2019-05-16T21:38:28.001Z,94.70
2019-05-16T21:40:58.404Z,95.00
2019-05-16T21:43:27.461Z,95.00
2019-05-16T21:45:56.673Z,95.10
2019-05-16T21:50:56.983Z,95.10
2019-05-16T21:53:27.234Z,95.20
2019-05-16T21:55:56.777Z,95.20
2019-05-16T21:58:26.743Z,95.30
2019-05-16T22:00:58.415Z,95.40
2019-05-16T22:03:27.419Z,95.30
2019-05-16T22:08:26.716Z,95.60
2019-05-16T22:10:57.293Z,95.90
2019-05-16T22:13:26.245Z,96.00
2019-05-16T22:15:56.941Z,96.10
2019-05-16T22:18:25.788Z,97.20
2019-05-16T22:20:56.952Z,97.50
2019-05-16T22:23:26.692Z,97.80
2019-05-16T22:25:56.975Z,98.10
2019-05-16T22:28:27.543Z,98.80
2019-05-16T22:30:58.555Z,98.80
2019-05-16T22:35:57.702Z,98.90
2019-05-16T22:38:26.630Z,99.20
2019-05-16T22:40:55.425Z,99.80
2019-05-16T22:43:26.566Z,99.90
2019-05-16T22:45:57.414Z,99.90
2019-05-16T22:48:26.676Z,99.90
2019-05-16T22:50:56.485Z,99.90
2019-05-16T22:53:27.202Z,99.90
2019-05-16T22:55:56.636Z,99.90
2019-05-16T22:58:26.987Z,99.90
2019-05-16T23:00:57.232Z,99.90
2019-05-16T23:03:26.753Z,99.90
2019-05-16T23:08:27.202Z,99.90
2019-05-16T23:13:26.570Z,99.90
2019-05-16T23:15:57.152Z,99.90
2019-05-16T23:18:26.711Z,99.90
2019-05-16T23:20:56.933Z,99.90
2019-05-16T23:23:26.577Z,99.90
2019-05-16T23:28:27.264Z,99.90
2019-05-16T23:30:57.768Z,99.90
2019-05-16T23:33:26.947Z,99.90
2019-05-16T23:35:57.537Z,99.90
2019-05-16T23:38:27.594Z,99.90
2019-05-16T23:40:57.224Z,99.90
2019-05-16T23:43:26.562Z,99.90
2019-05-16T23:45:56.369Z,99.90
2019-05-16T23:48:25.512Z,99.90
2019-05-16T23:53:22.618Z,99.90
2019-05-16T23:55:51.455Z,99.90
2019-05-16T23:58:20.257Z,99.90
